Time;durP1;ratioP1;P1;durP2;ratioP2;P2;SDS_P1;SDS_P2;PMS_P1;PMS_P2;Temp;Humidity;BMP_temperature;BMP_pressure;BME280_temperature;BME280_humidity;BME280_pressure;Samples;Min_cycle;Max_cycle;Signal;HPM_P1;HPM_P2
2023/05/16 00:01:19;;;;;;;7.50;4.08;;;;;;;14.62;48.81;100854.92;1707230;84;21232;-60
2023/05/16 00:04:26;;;;;;;14.68;4.62;;;;;;;14.56;48.84;100855.69;1707582;82;21359;-60
2023/05/16 00:07:31;;;;;;;9.20;4.58;;;;;;;14.48;48.89;100859.40;1697938;83;21225;-59
2023/05/16 00:10:37;;;;;;;9.20;4.20;;;;;;;14.43;48.97;100864.62;1709279;83;21208;-59
2023/05/16 00:13:45;;;;;;;7.33;4.47;;;;;;;14.37;49.07;100865.38;1710712;82;21209;-58
2023/05/16 00:16:52;;;;;;;9.95;4.12;;;;;;;14.33;49.23;100872.84;1710618;83;21719;-58
2023/05/16 00:19:59;;;;;;;9.05;4.80;;;;;;;14.29;49.37;100869.59;1708875;83;21414;-58
2023/05/16 00:23:04;;;;;;;14.30;5.10;;;;;;;14.23;49.39;100873.07;1707775;82;21342;-59
2023/05/16 00:26:09;;;;;;;9.73;5.05;;;;;;;14.16;49.46;100880.90;1707135;83;21281;-58
2023/05/16 00:29:14;;;;;;;11.83;5.45;;;;;;;14.09;49.56;100884.92;1709797;83;21296;-59
2023/05/16 00:32:22;;;;;;;11.22;6.40;;;;;;;14.02;49.60;100888.06;1689315;84;21233;-60
2023/05/16 00:35:30;;;;;;;16.87;6.00;;;;;;;13.92;49.63;100894.34;1638076;87;21855;-60
2023/05/16 00:38:36;;;;;;;10.13;6.08;;;;;;;13.85;49.72;100893.38;1670355;85;21753;-59
2023/05/16 00:41:42;;;;;;;9.85;5.00;;;;;;;13.80;49.88;100879.31;1670588;85;21185;-59
2023/05/16 00:44:47;;;;;;;12.33;5.83;;;;;;;13.77;50.04;100873.31;1671293;85;21244;-58
2023/05/16 00:47:54;;;;;;;6.30;4.70;;;;;;;13.74;50.18;100891.06;1670489;84;21260;-58
2023/05/16 00:51:01;;;;;;;9.93;4.42;;;;;;;13.71;50.35;100905.19;1670731;86;21390;-58
2023/05/16 00:54:08;;;;;;;13.50;5.22;;;;;;;13.69;50.47;100902.27;1637702;87;21249;-59
2023/05/16 00:57:15;;;;;;;9.88;5.08;;;;;;;13.61;50.46;100897.69;1669936;86;21419;-58
2023/05/16 01:00:20;;;;;;;7.87;4.72;;;;;;;13.56;50.53;100891.04;1670389;86;21229;-60
2023/05/16 01:03:27;;;;;;;9.48;5.12;;;;;;;13.47;50.53;100892.47;1637395;87;21240;-58
2023/05/16 01:06:33;;;;;;;9.00;5.45;;;;;;;13.39;50.57;100879.27;1670515;86;21225;-60
2023/05/16 01:09:38;;;;;;;15.45;5.40;;;;;;;13.33;50.68;100884.13;1637335;85;21304;-60
2023/05/16 01:13:09;;;;;;;6.05;4.87;;;;;;;13.30;50.91;100885.33;1636218;87;21347;-60
2023/05/16 01:16:38;;;;;;;7.67;4.83;;;;;;;13.26;51.05;100884.00;1636202;87;21266;-59
2023/05/16 01:20:14;;;;;;;9.40;5.35;;;;;;;13.24;51.18;100884.69;1634989;87;21308;-58
2023/05/16 01:23:48;;;;;;;7.72;4.83;;;;;;;13.18;51.33;100884.05;1636194;87;21266;-58
2023/05/16 01:26:55;;;;;;;7.97;5.00;;;;;;;13.15;51.46;100881.66;1636005;87;21363;-59
2023/05/16 01:30:04;;;;;;;7.85;5.40;;;;;;;13.11;51.58;100879.45;1636214;87;21241;-59
2023/05/16 01:33:09;;;;;;;7.83;5.50;;;;;;;13.05;51.61;100882.39;1636061;87;21285;-59
2023/05/16 01:36:40;;;;;;;8.73;5.42;;;;;;;12.98;51.68;100880.52;1636131;87;21379;-58
2023/05/16 01:40:06;;;;;;;15.32;5.92;;;;;;;12.94;51.84;100886.02;1636037;87;21768;-59
2023/05/16 01:43:17;;;;;;;16.45;5.70;;;;;;;12.90;52.03;100886.91;1636109;86;21236;-60
2023/05/16 01:46:33;;;;;;;7.75;5.45;;;;;;;12.86;52.17;100885.53;1636218;87;21321;-59
2023/05/16 01:49:53;;;;;;;12.28;5.60;;;;;;;12.83;52.29;100884.52;1636060;87;21256;-59
2023/05/16 01:53:14;;;;;;;10.18;5.58;;;;;;;12.81;52.41;100880.25;1636043;87;21232;-59
2023/05/16 01:56:22;;;;;;;9.90;5.42;;;;;;;12.78;52.59;100880.07;1636283;87;21269;-59
2023/05/16 01:59:33;;;;;;;13.75;5.90;;;;;;;12.76;52.77;100881.30;1636148;87;21395;-60
2023/05/16 02:02:39;;;;;;;8.00;5.40;;;;;;;12.76;52.91;100879.42;1636132;87;21359;-59
2023/05/16 02:05:46;;;;;;;7.53;5.12;;;;;;;12.76;53.03;100876.67;1636158;87;21193;-59
2023/05/16 02:08:53;;;;;;;12.28;5.50;;;;;;;12.76;53.15;100878.55;1637458;83;21269;-58
2023/05/16 02:11:59;;;;;;;10.95;5.05;;;;;;;12.75;53.26;100873.56;1670773;84;21208;-59
2023/05/16 02:15:05;;;;;;;16.48;5.80;;;;;;;12.75;53.38;100879.05;1637773;87;21225;-58
2023/05/16 02:18:12;;;;;;;11.78;5.50;;;;;;;12.75;53.48;100879.59;1670794;86;21847;-59
2023/05/16 02:21:17;;;;;;;13.85;5.53;;;;;;;12.74;53.54;100882.84;1670803;84;21217;-59
2023/05/16 02:24:23;;;;;;;12.50;5.58;;;;;;;12.75;53.64;100887.30;1637880;87;21232;-58
2023/05/16 02:27:29;;;;;;;9.55;5.83;;;;;;;12.75;53.74;100886.47;1670366;86;21569;-59
2023/05/16 02:30:36;;;;;;;12.37;5.95;;;;;;;12.75;53.81;100882.34;1670861;85;21367;-59
2023/05/16 02:33:42;;;;;;;12.43;6.20;;;;;;;12.74;53.87;100881.48;1637982;86;21316;-59
2023/05/16 02:36:49;;;;;;;13.83;5.90;;;;;;;12.77;54.06;100886.61;1620022;88;21721;-58
2023/05/16 02:39:55;;;;;;;8.20;4.92;;;;;;;12.81;54.20;100894.83;1638277;87;21256;-59
2023/05/16 02:43:01;;;;;;;8.35;4.95;;;;;;;12.84;54.27;100895.88;1638232;87;21858;-60
2023/05/16 02:46:07;;;;;;;10.82;5.33;;;;;;;12.90;54.42;100899.78;1670910;85;21205;-60
2023/05/16 02:49:14;;;;;;;10.15;4.83;;;;;;;12.96;54.56;100894.94;1623870;87;21764;-59
2023/05/16 02:52:21;;;;;;;13.90;5.30;;;;;;;13.01;54.60;100896.16;1671063;84;21248;-60
2023/05/16 02:55:27;;;;;;;12.43;4.78;;;;;;;13.06;54.71;100892.88;1670833;86;21224;-59
2023/05/16 02:58:35;;;;;;;10.05;5.15;;;;;;;13.10;54.78;100886.83;1638140;87;21272;-59
2023/05/16 03:01:41;;;;;;;11.38;5.22;;;;;;;13.15;54.83;100889.91;1670519;86;21225;-58
2023/05/16 03:04:47;;;;;;;13.08;5.80;;;;;;;13.21;54.93;100893.30;1670887;86;21576;-59
2023/05/16 03:07:54;;;;;;;10.45;4.87;;;;;;;13.26;54.99;100886.75;1638038;87;21244;-59
2023/05/16 03:10:59;;;;;;;11.57;5.55;;;;;;;13.31;55.10;100893.94;1620566;86;21232;-59
2023/05/16 03:14:06;;;;;;;14.45;5.58;;;;;;;13.38;55.21;100887.20;1626693;86;21259;-58
2023/05/16 03:17:10;;;;;;;19.73;6.08;;;;;;;13.43;55.29;100891.10;1621255;88;21777;-59
2023/05/16 03:20:18;;;;;;;17.35;5.95;;;;;;;13.50;55.37;100897.60;1609997;88;21224;-59
2023/05/16 03:23:23;;;;;;;27.30;5.75;;;;;;;13.59;55.47;100892.05;1597093;89;21309;-59
2023/05/16 03:26:28;;;;;;;15.53;6.22;;;;;;;13.71;55.58;100890.56;1597284;88;21241;-60
2023/05/16 03:29:35;;;;;;;17.30;5.85;;;;;;;13.81;55.67;100893.94;1626416;87;21855;-60
2023/05/16 03:32:40;;;;;;;25.60;7.08;;;;;;;13.90;55.74;100901.08;1626265;88;21196;-59
2023/05/16 03:35:45;;;;;;;18.25;6.12;;;;;;;13.99;55.76;100897.20;1582705;90;21293;-59
2023/05/16 03:38:52;;;;;;;19.40;5.40;;;;;;;14.08;55.79;100903.00;1626711;88;21291;-60
2023/05/16 03:41:58;;;;;;;18.77;6.12;;;;;;;14.19;55.84;100899.80;1621724;88;21227;-60
2023/05/16 03:45:04;;;;;;;14.03;5.00;;;;;;;14.30;55.85;100902.97;1607962;87;21287;-60
2023/05/16 03:48:10;;;;;;;17.02;4.92;;;;;;;14.39;55.83;100903.24;1626374;88;21231;-60
2023/05/16 03:51:16;;;;;;;15.08;5.00;;;;;;;14.52;55.92;100906.21;1627039;87;21247;-59
2023/05/16 03:54:22;;;;;;;13.85;4.75;;;;;;;14.66;55.96;100903.98;1625518;88;21231;-60
2023/05/16 03:57:28;;;;;;;11.75;5.67;;;;;;;14.81;55.92;100900.69;1627060;86;21271;-60
2023/05/16 04:00:35;;;;;;;15.25;6.30;;;;;;;14.96;55.90;100902.93;1625454;87;21360;-60
2023/05/16 04:03:41;;;;;;;11.12;6.30;;;;;;;15.12;55.91;100907.89;1597631;88;21784;-60
2023/05/16 04:06:48;;;;;;;11.73;5.75;;;;;;;15.24;55.85;100905.82;1619862;88;21402;-61
2023/05/16 04:09:54;;;;;;;13.45;5.42;;;;;;;15.39;55.81;100908.07;1626546;86;21231;-59
2023/05/16 04:13:00;;;;;;;13.62;5.58;;;;;;;15.53;55.79;100904.41;1629821;86;21324;-60
2023/05/16 04:16:07;;;;;;;9.48;5.90;;;;;;;15.65;55.71;100906.97;1633539;88;21223;-60
2023/05/16 04:19:06;;;;;;;11.95;5.55;;;;;;;15.78;55.68;100914.02;1652389;87;21316;-61
2023/05/16 04:22:12;;;;;;;11.88;5.12;;;;;;;15.90;55.58;100914.36;1678663;85;21272;-61
2023/05/16 04:25:18;;;;;;;24.20;5.70;;;;;;;16.00;55.54;100910.20;1678654;84;21272;-59
2023/05/16 04:28:25;;;;;;;18.65;5.30;;;;;;;16.13;55.53;100915.00;1678518;85;21381;-60
2023/05/16 04:31:33;;;;;;;11.78;5.20;;;;;;;16.25;55.51;100912.88;1645632;87;21224;-60
2023/05/16 04:34:38;;;;;;;16.25;5.25;;;;;;;16.39;55.47;100909.71;1629322;87;21319;-60
2023/05/16 04:37:43;;;;;;;11.12;5.00;;;;;;;16.51;55.43;100910.89;1647368;86;21769;-60
2023/05/16 04:40:53;;;;;;;15.18;6.47;;;;;;;16.65;55.35;100911.30;1667334;85;21852;-61
2023/05/16 04:43:57;;;;;;;10.15;5.33;;;;;;;16.78;55.29;100910.53;1655011;85;21239;-61
2023/05/16 04:47:02;;;;;;;15.83;5.55;;;;;;;16.90;55.18;100911.17;1683881;84;21229;-60
2023/05/16 04:50:10;;;;;;;14.18;6.22;;;;;;;17.04;55.14;100910.70;1674771;85;21817;-62
2023/05/16 04:53:17;;;;;;;15.48;5.45;;;;;;;17.22;55.13;100913.78;1646477;84;21231;-62
2023/05/16 04:56:21;;;;;;;18.75;5.22;;;;;;;17.36;55.06;100911.39;1668522;83;21275;-57
2023/05/16 04:59:27;;;;;;;12.73;5.47;;;;;;;17.50;54.96;100912.66;1682366;84;21264;-57
2023/05/16 05:02:35;;;;;;;27.80;8.23;;;;;;;17.63;54.88;100909.08;1684451;84;21279;-57
2023/05/16 05:05:40;;;;;;;23.92;7.90;;;;;;;17.75;54.79;100910.16;1681686;84;21191;-57
2023/05/16 05:08:46;;;;;;;22.13;8.40;;;;;;;17.83;54.58;100911.35;1676424;84;21868;-56
2023/05/16 05:11:51;;;;;;;18.52;7.30;;;;;;;17.92;54.51;100905.92;1679336;84;21290;-56
2023/05/16 05:14:56;;;;;;;13.65;6.83;;;;;;;18.03;54.47;100911.39;1648478;85;21816;-56
2023/05/16 05:18:01;;;;;;;13.55;7.10;;;;;;;18.15;54.43;100908.30;1629737;86;21283;-56
2023/05/16 05:21:08;;;;;;;10.95;5.67;;;;;;;18.28;54.36;100911.95;1631582;86;21231;-56
2023/05/16 05:24:14;;;;;;;19.40;5.97;;;;;;;18.41;54.22;100901.42;1636240;86;21215;-56
2023/05/16 05:27:20;;;;;;;9.45;5.92;;;;;;;18.53;54.01;100912.18;1632190;85;21305;-58
2023/05/16 05:30:25;;;;;;;17.35;7.33;;;;;;;18.65;53.90;100909.92;1630337;86;21231;-57
2023/05/16 05:33:34;;;;;;;14.90;7.58;;;;;;;18.80;53.72;100910.55;1626362;87;21314;-56
2023/05/16 05:36:41;;;;;;;15.80;7.85;;;;;;;18.95;53.61;100909.75;1627288;85;21241;-57
2023/05/16 05:39:47;;;;;;;19.25;8.15;;;;;;;19.13;53.57;100907.68;1642055;86;21282;-56
2023/05/16 05:42:53;;;;;;;22.00;10.35;;;;;;;19.32;53.52;100908.17;1643365;86;21235;-57
2023/05/16 05:46:00;;;;;;;23.98;9.38;;;;;;;19.47;53.32;100906.52;1641457;86;21796;-56
2023/05/16 05:49:06;;;;;;;15.32;8.53;;;;;;;19.62;53.21;100912.63;1628511;86;21846;-57
2023/05/16 05:52:12;;;;;;;16.20;8.03;;;;;;;19.82;53.16;100909.22;1628258;86;21238;-57
2023/05/16 05:55:17;;;;;;;13.48;7.87;;;;;;;19.99;52.99;100909.85;1628708;86;21323;-58
2023/05/16 05:58:24;;;;;;;12.10;7.15;;;;;;;20.17;52.80;100914.12;1628496;86;21250;-57
2023/05/16 06:01:29;;;;;;;15.00;6.33;;;;;;;20.35;52.62;100920.30;1628127;86;21228;-55
2023/05/16 06:04:34;;;;;;;13.03;6.15;;;;;;;20.54;52.47;100917.88;1629204;86;21239;-57
2023/05/16 06:07:40;;;;;;;11.83;5.87;;;;;;;20.70;52.24;100922.34;1627520;86;21738;-57
2023/05/16 06:10:47;;;;;;;14.80;6.17;;;;;;;20.88;52.11;100917.89;1632986;86;21274;-57
2023/05/16 06:13:53;;;;;;;15.58;6.50;;;;;;;21.08;51.93;100920.80;1632990;82;21250;-57
2023/05/16 06:17:00;;;;;;;11.30;4.67;;;;;;;21.21;51.54;100920.66;1674674;85;21209;-56
2023/05/16 06:20:06;;;;;;;9.60;4.72;;;;;;;21.30;51.20;100924.83;1669009;85;21322;-57
2023/05/16 06:23:12;;;;;;;12.73;4.85;;;;;;;21.41;51.00;100927.36;1640349;86;21275;-57
2023/05/16 06:26:19;;;;;;;8.88;4.33;;;;;;;21.52;50.83;100921.87;1628987;88;21702;-57
2023/05/16 06:29:27;;;;;;;12.18;4.83;;;;;;;21.62;50.53;100924.09;1599738;88;21312;-55
2023/05/16 06:32:33;;;;;;;10.28;5.10;;;;;;;21.71;50.27;100919.36;1624785;86;21453;-57
2023/05/16 06:35:40;;;;;;;10.65;3.75;;;;;;;21.82;50.08;100925.56;1631776;87;21221;-57
2023/05/16 06:38:47;;;;;;;6.55;3.87;;;;;;;21.94;49.83;100926.48;1677693;84;21232;-58
2023/05/16 06:41:54;;;;;;;8.45;3.70;;;;;;;22.07;49.59;100931.84;1671857;84;21293;-57
2023/05/16 06:45:01;;;;;;;8.95;4.22;;;;;;;22.15;49.29;100927.32;1676716;84;21248;-56
2023/05/16 06:48:07;;;;;;;13.15;3.80;;;;;;;22.25;49.08;100930.09;1676438;84;21807;-57
2023/05/16 06:51:13;;;;;;;9.63;3.80;;;;;;;22.33;48.82;100934.77;1676405;85;21345;-57
2023/05/16 06:54:22;;;;;;;9.80;3.42;;;;;;;22.39;48.56;100937.16;1664594;84;21248;-58
2023/05/16 06:57:29;;;;;;;9.98;3.35;;;;;;;22.45;48.31;100931.48;1671920;84;21243;-58
2023/05/16 07:00:35;;;;;;;6.08;3.50;;;;;;;22.50;48.12;100937.73;1677031;84;21584;-57
2023/05/16 07:03:42;;;;;;;9.73;3.85;;;;;;;22.56;47.85;100940.45;1670668;84;22173;-56
2023/05/16 07:06:49;;;;;;;7.60;3.47;;;;;;;22.59;47.68;100929.33;1677669;85;21236;-58
2023/05/16 07:09:57;;;;;;;9.25;3.22;;;;;;;22.66;47.50;100925.90;1672557;84;21265;-57
2023/05/16 07:13:10;;;;;;;9.03;3.33;;;;;;;22.73;47.31;100928.87;1672651;84;21276;-57
2023/05/16 07:16:30;;;;;;;8.90;3.30;;;;;;;22.75;47.00;100925.83;1667911;82;21303;-57
2023/05/16 07:19:37;;;;;;;3.45;2.62;;;;;;;22.83;46.83;100922.68;1662912;84;21241;-58
2023/05/16 07:22:44;;;;;;;5.40;2.98;;;;;;;22.89;46.51;100928.15;1674651;84;21236;-56
2023/05/16 07:25:49;;;;;;;7.40;3.00;;;;;;;22.91;46.21;100928.73;1676556;84;21232;-55
2023/05/16 07:28:57;;;;;;;9.50;2.92;;;;;;;22.96;45.97;100932.22;1675639;85;21327;-54
2023/05/16 07:32:02;;;;;;;10.00;2.98;;;;;;;23.04;45.82;100928.48;1670299;84;21216;-56
2023/05/16 07:35:08;;;;;;;6.62;2.85;;;;;;;23.18;45.61;100931.89;1676763;84;21216;-56
2023/05/16 07:38:15;;;;;;;6.65;2.42;;;;;;;23.34;45.35;100923.62;1677926;84;21231;-55
2023/05/16 07:41:24;;;;;;;5.30;2.60;;;;;;;23.45;44.99;100928.34;1677800;85;21217;-54
2023/05/16 07:44:30;;;;;;;6.12;2.70;;;;;;;23.57;44.65;100922.19;1679143;84;21907;-55
2023/05/16 07:47:36;;;;;;;5.65;2.47;;;;;;;23.77;44.41;100925.10;1678171;85;21283;-55
2023/05/16 07:50:43;;;;;;;5.47;2.60;;;;;;;23.89;44.01;100923.95;1676803;85;21405;-55
2023/05/16 07:53:49;;;;;;;4.22;2.10;;;;;;;24.03;43.69;100918.39;1637132;87;21336;-57
2023/05/16 07:56:54;;;;;;;6.85;2.22;;;;;;;24.19;43.38;100914.77;1629788;86;21217;-59
2023/05/16 08:00:00;;;;;;;3.75;2.65;;;;;;;24.36;43.01;100917.04;1670353;84;21606;-57
2023/05/16 08:03:08;;;;;;;4.42;2.40;;;;;;;24.54;42.69;100929.41;1671119;84;21240;-58
2023/05/16 08:06:14;;;;;;;7.65;2.37;;;;;;;24.71;42.27;100927.48;1648939;85;21189;-57
2023/05/16 08:09:20;;;;;;;4.95;2.77;;;;;;;24.84;41.84;100927.14;1650652;86;21296;-57
2023/05/16 08:12:26;;;;;;;6.67;3.77;;;;;;;24.96;41.40;100928.42;1650264;87;21219;-57
2023/05/16 08:15:34;;;;;;;5.95;2.45;;;;;;;25.08;41.06;100925.53;1650691;86;21221;-58
2023/05/16 08:18:42;;;;;;;5.22;2.40;;;;;;;25.16;40.62;100929.30;1650770;85;21283;-58
2023/05/16 08:21:47;;;;;;;5.78;2.47;;;;;;;25.28;40.26;100928.61;1650419;87;21821;-56
2023/05/16 08:24:56;;;;;;;4.15;2.17;;;;;;;25.33;39.95;100914.67;1650522;85;21602;-56
2023/05/16 08:28:03;;;;;;;11.22;2.47;;;;;;;25.48;39.68;100917.16;1678782;84;21452;-57
2023/05/16 08:31:10;;;;;;;12.70;8.35;;;;;;;25.62;39.35;100917.09;1678214;85;21224;-57
2023/05/16 08:34:21;;;;;;;10.90;4.10;;;;;;;25.75;38.93;100914.44;1646331;84;21292;-56
2023/05/16 08:37:29;;;;;;;14.70;6.92;;;;;;;25.88;38.67;100918.21;1668027;85;21738;-54
2023/05/16 08:40:35;;;;;;;3.92;2.35;;;;;;;26.01;38.37;100912.22;1678198;85;21772;-57
2023/05/16 08:43:42;;;;;;;7.28;2.47;;;;;;;26.08;38.02;100915.68;1645084;85;21230;-57
2023/05/16 08:46:49;;;;;;;6.47;2.42;;;;;;;26.09;37.67;100915.41;1644221;86;21287;-57
2023/05/16 08:49:56;;;;;;;5.03;2.25;;;;;;;26.08;37.31;100919.89;1625362;87;21217;-58
2023/05/16 08:53:05;;;;;;;5.55;2.80;;;;;;;26.01;36.97;100920.09;1631831;87;21261;-56
2023/05/16 08:56:12;;;;;;;4.67;2.15;;;;;;;25.93;36.65;100914.06;1627567;87;21224;-54
2023/05/16 08:59:18;;;;;;;3.92;2.85;;;;;;;25.85;36.42;100913.12;1628977;86;21334;-55
2023/05/16 09:02:25;;;;;;;7.03;2.33;;;;;;;25.82;36.23;100910.85;1617380;87;21222;-56
2023/05/16 09:05:32;;;;;;;4.70;2.55;;;;;;;25.81;36.00;100907.22;1624070;88;21228;-57
2023/05/16 09:08:39;;;;;;;5.67;2.60;;;;;;;25.81;35.84;100904.41;1612714;87;21252;-57
2023/05/16 09:11:46;;;;;;;4.35;2.20;;;;;;;25.85;35.54;100907.52;1635143;86;21581;-57
2023/05/16 09:14:52;;;;;;;3.83;1.98;;;;;;;25.91;35.31;100896.67;1633145;87;21244;-56
2023/05/16 09:17:58;;;;;;;6.80;2.50;;;;;;;25.97;35.09;100895.03;1679747;82;21267;-57
2023/05/16 09:21:04;;;;;;;8.20;2.35;;;;;;;26.01;34.81;100892.58;1679675;84;22010;-57
2023/05/16 09:24:15;;;;;;;6.00;2.30;;;;;;;26.00;34.53;100888.95;1625490;85;21844;-57
2023/05/16 09:27:22;;;;;;;8.68;2.90;;;;;;;26.00;34.30;100888.95;1645857;85;21242;-56
2023/05/16 09:30:38;;;;;;;6.03;2.52;;;;;;;25.95;34.16;100886.59;1671136;84;21256;-57
2023/05/16 09:33:52;;;;;;;8.58;2.55;;;;;;;25.85;33.93;100886.47;1676184;84;21587;-57
2023/05/16 09:37:01;;;;;;;10.45;2.62;;;;;;;25.77;33.83;100892.55;1661625;86;21240;-56
2023/05/16 09:40:07;;;;;;;7.85;2.83;;;;;;;25.71;33.78;100891.66;1622606;87;21196;-61
2023/05/16 09:43:16;;;;;;;4.65;2.77;;;;;;;25.64;33.66;100897.19;1621856;86;21235;-60
2023/05/16 09:46:23;;;;;;;3.77;2.22;;;;;;;25.58;33.52;100899.61;1622307;86;21287;-60
2023/05/16 09:49:30;;;;;;;8.00;2.50;;;;;;;25.54;33.43;100899.86;1617888;87;22042;-60
2023/05/16 09:52:37;;;;;;;6.62;2.90;;;;;;;25.49;33.31;100898.38;1676213;84;21267;-61
2023/05/16 09:55:42;;;;;;;3.80;2.55;;;;;;;25.46;33.24;100899.77;1680219;85;21224;-60
2023/05/16 09:58:51;;;;;;;3.92;2.30;;;;;;;25.40;33.12;100906.97;1679793;84;21743;-60
2023/05/16 10:01:57;;;;;;;5.75;2.35;;;;;;;25.35;33.06;100904.95;1678445;84;21252;-61
2023/05/16 10:05:01;;;;;;;4.95;2.52;;;;;;;25.30;32.99;100906.24;1675028;85;21279;-62
2023/05/16 10:08:09;;;;;;;5.45;2.55;;;;;;;25.24;32.91;100905.03;1680812;84;21228;-62
2023/05/16 10:11:15;;;;;;;4.78;2.70;;;;;;;25.18;32.92;100907.47;1675085;85;21256;-62
2023/05/16 10:14:23;;;;;;;9.50;3.00;;;;;;;25.14;32.89;100914.68;1677501;84;21292;-61
2023/05/16 10:17:31;;;;;;;5.60;2.90;;;;;;;25.14;32.83;100918.89;1661334;84;21729;-61
2023/05/16 10:20:39;;;;;;;6.75;3.17;;;;;;;25.08;32.71;100913.77;1649443;86;21773;-60
2023/05/16 10:23:47;;;;;;;8.63;3.35;;;;;;;25.05;32.68;100916.52;1661125;84;21237;-61
2023/05/16 10:26:54;;;;;;;4.45;2.80;;;;;;;25.02;32.57;100921.24;1671945;84;21217;-61
2023/05/16 10:30:01;;;;;;;4.05;2.67;;;;;;;24.98;32.48;100919.22;1665937;84;21602;-59
2023/05/16 10:33:08;;;;;;;6.65;2.92;;;;;;;24.95;32.45;100922.53;1676412;84;21205;-59
2023/05/16 10:36:18;;;;;;;10.18;3.20;;;;;;;24.94;32.42;100916.08;1672526;85;21256;-61
2023/05/16 10:39:25;;;;;;;11.80;2.50;;;;;;;24.90;32.38;100917.71;1665122;84;21232;-62
2023/05/16 10:42:30;;;;;;;8.45;3.15;;;;;;;24.86;32.37;100919.30;1671025;84;21638;-59
2023/05/16 10:45:36;;;;;;;8.63;3.50;;;;;;;24.86;32.39;100914.28;1682840;84;21208;-60
2023/05/16 10:48:44;;;;;;;4.08;2.72;;;;;;;24.87;32.36;100921.02;1670277;84;21416;-57
2023/05/16 10:51:51;;;;;;;5.87;2.52;;;;;;;24.89;32.35;100927.20;1668013;85;21731;-60
2023/05/16 10:54:58;;;;;;;7.40;2.52;;;;;;;24.92;32.33;100922.52;1672420;84;21804;-60
2023/05/16 10:58:03;;;;;;;4.45;2.50;;;;;;;24.91;32.28;100920.80;1676719;84;21224;-59
2023/05/16 11:01:33;;;;;;;10.05;2.33;;;;;;;24.91;32.22;100926.40;1671316;84;21754;-61
2023/05/16 11:05:01;;;;;;;5.30;2.70;;;;;;;24.89;32.19;100922.17;1676087;84;21797;-58
2023/05/16 11:08:12;;;;;;;7.75;2.55;;;;;;;24.88;32.19;100912.91;1648999;84;21841;-60
2023/05/16 11:11:51;;;;;;;3.90;2.30;;;;;;;24.88;32.17;100918.51;1676923;84;21212;-62
2023/05/16 11:14:58;;;;;;;7.28;2.62;;;;;;;24.88;32.12;100926.91;1673354;84;21284;-60
2023/05/16 11:18:19;;;;;;;5.60;2.47;;;;;;;24.85;32.03;100927.43;1666133;84;21631;-59
2023/05/16 11:21:28;;;;;;;6.50;2.50;;;;;;;24.84;32.01;100922.94;1675552;82;21749;-62
2023/05/16 11:24:39;;;;;;;3.87;2.25;;;;;;;24.83;31.95;100912.82;1660748;84;21275;-61
2023/05/16 11:27:53;;;;;;;5.67;2.85;;;;;;;24.83;31.89;100912.82;1678206;83;21209;-60
2023/05/16 11:31:04;;;;;;;10.28;2.50;;;;;;;24.86;31.89;100911.48;1682544;84;21216;-61
2023/05/16 11:34:10;;;;;;;9.75;2.52;;;;;;;24.89;31.86;100915.99;1675289;84;21780;-61
2023/05/16 11:37:16;;;;;;;9.68;2.87;;;;;;;24.89;31.84;100912.36;1670720;84;21801;-60
2023/05/16 11:40:23;;;;;;;6.75;2.72;;;;;;;24.86;31.80;100919.30;1670292;84;21209;-61
2023/05/16 11:43:30;;;;;;;7.40;2.50;;;;;;;24.85;31.80;100910.62;1673123;84;21225;-59
2023/05/16 11:46:35;;;;;;;4.15;2.55;;;;;;;24.83;31.75;100910.59;1655613;85;21706;-62
2023/05/16 11:49:43;;;;;;;3.65;2.27;;;;;;;24.78;31.68;100910.51;1659050;84;21609;-60
2023/05/16 11:52:56;;;;;;;7.08;2.52;;;;;;;24.73;31.63;100913.22;1680998;83;21283;-60
2023/05/16 11:56:04;;;;;;;7.00;2.75;;;;;;;24.67;31.54;100912.27;1676969;85;21220;-61
2023/05/16 11:59:27;;;;;;;6.72;3.05;;;;;;;24.62;31.52;100918.33;1674121;84;21316;-59
2023/05/16 12:02:38;;;;;;;4.92;2.60;;;;;;;24.57;31.52;100912.09;1663685;86;21238;-60
2023/05/16 12:05:45;;;;;;;5.90;2.60;;;;;;;24.50;31.48;100910.00;1682029;84;21757;-60
2023/05/16 12:09:00;;;;;;;7.45;2.67;;;;;;;24.41;31.47;100908.73;1674575;83;21276;-60
2023/05/16 12:12:05;;;;;;;7.50;2.90;;;;;;;24.37;31.47;100909.50;1663641;85;21288;-64
2023/05/16 12:15:12;;;;;;;7.83;2.40;;;;;;;24.33;31.49;100910.55;1637181;85;21212;-60
2023/05/16 12:18:20;;;;;;;9.23;2.67;;;;;;;24.25;31.44;100915.16;1614859;87;21272;-58
2023/05/16 12:21:26;;;;;;;4.47;2.67;;;;;;;24.16;31.44;100922.28;1635310;83;21771;-59
2023/05/16 12:24:38;;;;;;;16.80;3.95;;;;;;;24.07;31.50;100911.17;1622528;86;21267;-60
2023/05/16 12:27:47;;;;;;;15.83;3.42;;;;;;;24.00;31.66;100924.48;1623655;87;22150;-61
2023/05/16 12:30:55;;;;;;;12.47;2.85;;;;;;;23.89;31.77;100917.50;1608690;86;21764;-60
2023/05/16 12:34:02;;;;;;;6.85;3.25;;;;;;;23.79;31.90;100925.14;1672440;84;21701;-60
2023/05/16 12:37:07;;;;;;;8.43;3.05;;;;;;;23.68;31.94;100920.44;1669772;84;22045;-59
2023/05/16 12:40:19;;;;;;;5.37;2.87;;;;;;;23.59;32.17;100922.77;1678019;84;21808;-60
2023/05/16 12:43:29;;;;;;;7.28;3.17;;;;;;;23.55;32.39;100925.77;1680419;84;21216;-59
2023/05/16 12:46:35;;;;;;;7.85;3.02;;;;;;;23.52;32.61;100924.87;1642965;86;21219;-59
2023/05/16 12:49:42;;;;;;;5.25;2.77;;;;;;;23.48;32.75;100928.41;1654928;85;21212;-58
2023/05/16 12:53:01;;;;;;;3.85;2.67;;;;;;;23.45;32.94;100927.51;1621599;86;21252;-60
2023/05/16 12:56:08;;;;;;;6.72;2.80;;;;;;;23.37;33.16;100929.29;1627449;86;21320;-59
2023/05/16 12:59:15;;;;;;;5.10;2.62;;;;;;;23.28;33.44;100933.00;1631336;86;21238;-59
2023/05/16 13:02:21;;;;;;;5.78;3.10;;;;;;;23.19;33.51;100941.97;1583551;89;21273;-58
2023/05/16 13:05:27;;;;;;;8.30;4.05;;;;;;;23.09;33.60;100938.39;1610372;87;21792;-58
2023/05/16 13:08:33;;;;;;;8.33;4.30;;;;;;;23.01;33.78;100941.55;1611463;87;21255;-59
2023/05/16 13:11:41;;;;;;;6.47;3.27;;;;;;;22.92;33.96;100934.64;1622198;87;21241;-60
2023/05/16 13:14:48;;;;;;;7.00;3.20;;;;;;;22.86;34.17;100933.36;1617161;86;21257;-59
2023/05/16 13:17:54;;;;;;;5.47;3.20;;;;;;;22.76;34.28;100935.89;1623793;86;21221;-59
2023/05/16 13:21:02;;;;;;;12.40;3.95;;;;;;;22.65;34.47;100946.50;1629332;86;21233;-59
2023/05/16 13:24:09;;;;;;;6.30;3.17;;;;;;;22.51;34.62;100929.11;1642708;86;21276;-59
2023/05/16 13:27:15;;;;;;;6.70;2.90;;;;;;;22.42;34.74;100932.50;1620536;86;21954;-59
2023/05/16 13:30:21;;;;;;;6.12;2.50;;;;;;;22.28;34.95;100926.27;1624981;87;21829;-58
2023/05/16 13:33:27;;;;;;;6.03;2.80;;;;;;;22.16;35.15;100920.67;1635058;87;21260;-59
2023/05/16 13:36:32;;;;;;;5.78;2.72;;;;;;;22.04;35.37;100921.16;1642493;86;21268;-61
2023/05/16 13:39:38;;;;;;;8.60;3.40;;;;;;;21.92;35.59;100924.47;1617794;87;21828;-60
2023/05/16 13:42:48;;;;;;;3.98;2.83;;;;;;;21.80;35.78;100927.73;1616202;87;21806;-62
2023/05/16 13:45:52;;;;;;;5.80;3.00;;;;;;;21.68;35.99;100922.63;1609309;89;21228;-61
2023/05/16 13:48:59;;;;;;;4.35;3.25;;;;;;;21.58;36.19;100920.92;1630315;86;21276;-62
2023/05/16 13:52:05;;;;;;;3.72;2.77;;;;;;;21.53;36.44;100933.88;1613104;86;21198;-62
2023/05/16 13:55:13;;;;;;;10.68;3.37;;;;;;;21.48;36.77;100937.90;1643652;86;21216;-57
2023/05/16 13:58:20;;;;;;;5.78;2.70;;;;;;;21.43;37.03;100927.46;1685172;83;21232;-57
2023/05/16 14:01:27;;;;;;;6.90;2.80;;;;;;;21.41;37.21;100935.72;1644041;86;21424;-58
2023/05/16 14:04:33;;;;;;;4.95;2.90;;;;;;;21.38;37.39;100931.48;1632990;87;21233;-60
2023/05/16 14:07:41;;;;;;;13.78;3.33;;;;;;;21.34;37.59;100933.05;1620036;87;21280;-59
2023/05/16 14:10:46;;;;;;;4.20;2.75;;;;;;;21.31;37.91;100923.73;1636072;87;21292;-60
2023/05/16 14:13:52;;;;;;;8.78;3.62;;;;;;;21.29;38.23;100925.92;1636009;87;21217;-61
2023/05/16 14:16:58;;;;;;;7.53;3.55;;;;;;;21.26;38.45;100936.14;1632061;86;21766;-62
2023/05/16 14:20:08;;;;;;;10.35;5.55;;;;;;;21.22;38.74;100950.20;1633913;86;22833;-59
2023/05/16 14:23:12;;;;;;;8.15;3.92;;;;;;;21.18;38.93;100957.33;1639927;83;21291;-60
2023/05/16 14:26:21;;;;;;;7.30;3.27;;;;;;;21.14;39.17;100956.07;1622512;87;21268;-64
2023/05/16 14:29:29;;;;;;;13.28;3.72;;;;;;;21.09;39.32;100948.95;1608465;88;21268;-60